Time;durP1;ratioP1;P1;durP2;ratioP2;P2;SDS_P1;SDS_P2;PMS_P1;PMS_P2;Temp;Humidity;BMP_temperature;BMP_pressure;BME280_temperature;BME280_humidity;BME280_pressure;Samples;Min_cycle;Max_cycle;Signal;HPM_P1;HPM_P2
2020/12/12 00:00:59;;;;;;;53.33;34.27;;;6.10;99.90;;;;;;5036839;28;37984;-77
2020/12/12 00:03:26;;;;;;;42.43;30.27;;;6.20;99.90;;;;;;5025327;28;38046;-77
2020/12/12 00:05:52;;;;;;;36.20;28.23;;;6.10;99.90;;;;;;5022942;28;40433;-77
2020/12/12 00:08:18;;;;;;;36.60;29.37;;;6.20;99.90;;;;;;5027556;28;38429;-77
2020/12/12 00:10:46;;;;;;;31.50;26.27;;;6.10;99.90;;;;;;5029284;28;37883;-77
2020/12/12 00:13:14;;;;;;;39.50;28.70;;;6.10;99.90;;;;;;5039354;28;36327;-78
2020/12/12 00:15:41;;;;;;;40.50;30.03;;;6.10;99.90;;;;;;5021065;28;40545;-78
2020/12/12 00:18:07;;;;;;;48.30;33.20;;;6.10;99.90;;;;;;5022158;28;38182;-78
2020/12/12 00:20:34;;;;;;;39.93;29.77;;;6.10;99.90;;;;;;5017289;28;39053;-77
2020/12/12 00:23:14;;;;;;;48.47;32.33;;;6.10;99.90;;;;;;5020615;28;37388;-78
2020/12/12 00:25:41;;;;;;;50.53;32.97;;;6.20;99.90;;;;;;5037288;28;47229;-78
2020/12/12 00:28:07;;;;;;;50.63;33.40;;;6.20;99.90;;;;;;5052993;28;39415;-78
2020/12/12 00:30:33;;;;;;;55.53;34.47;;;6.20;99.90;;;;;;5028866;28;38217;-78
2020/12/12 00:32:59;;;;;;;47.10;32.33;;;6.20;99.90;;;;;;5024984;28;37505;-78
2020/12/12 00:35:25;;;;;;;46.50;32.30;;;6.20;99.90;;;;;;5020222;28;37715;-78
2020/12/12 00:37:51;;;;;;;59.57;33.07;;;6.20;99.90;;;;;;5022466;28;38125;-78
2020/12/12 00:40:17;;;;;;;36.40;29.97;;;6.20;99.90;;;;;;5023020;28;37254;-78
2020/12/12 00:42:43;;;;;;;37.10;28.33;;;6.20;99.90;;;;;;5027546;28;37784;-78
2020/12/12 00:45:12;;;;;;;37.47;29.07;;;6.20;99.90;;;;;;5039172;28;37580;-78
2020/12/12 00:47:38;;;;;;;38.90;28.53;;;6.20;99.90;;;;;;5027454;28;38443;-78
2020/12/12 00:50:04;;;;;;;40.47;30.10;;;6.20;99.90;;;;;;5023532;28;38830;-78
2020/12/12 00:52:30;;;;;;;74.67;37.30;;;6.20;99.90;;;;;;5021283;28;38061;-79
2020/12/12 00:54:56;;;;;;;38.43;28.87;;;6.30;99.90;;;;;;5021598;28;38856;-78
2020/12/12 00:57:22;;;;;;;47.37;32.93;;;6.20;99.90;;;;;;5022341;28;38392;-78
2020/12/12 00:59:48;;;;;;;50.73;34.07;;;6.30;99.90;;;;;;5048908;28;37185;-79
2020/12/12 01:02:14;;;;;;;38.97;30.57;;;6.20;99.90;;;;;;5016540;28;36346;-79
2020/12/12 01:04:40;;;;;;;53.43;35.83;;;6.20;99.90;;;;;;5021619;28;38156;-78
2020/12/12 01:07:06;;;;;;;54.90;35.13;;;6.30;99.90;;;;;;5020671;28;39139;-78
2020/12/12 01:09:33;;;;;;;52.07;34.67;;;6.30;99.90;;;;;;5017125;28;39633;-78
2020/12/12 01:11:59;;;;;;;37.73;30.20;;;6.30;99.90;;;;;;5020394;28;36391;-78
2020/12/12 01:14:25;;;;;;;59.10;36.90;;;6.30;99.90;;;;;;5019443;28;38697;-78
2020/12/12 01:16:51;;;;;;;49.17;33.43;;;6.30;99.90;;;;;;5025663;28;38612;-78
2020/12/12 01:19:17;;;;;;;50.77;34.30;;;6.30;99.90;;;;;;5024607;28;38100;-78
2020/12/12 01:21:43;;;;;;;37.50;29.67;;;6.30;99.90;;;;;;5024218;28;38098;-78
2020/12/12 01:24:15;;;;;;;70.20;40.40;;;6.30;99.90;;;;;;5034587;28;37508;-78
2020/12/12 01:26:47;;;;;;;46.55;32.08;;;6.30;99.90;;;;;;5021604;28;39330;-78
2020/12/12 01:29:14;;;;;;;50.83;34.08;;;6.40;99.90;;;;;;5023114;28;37822;-78
2020/12/12 01:31:40;;;;;;;46.30;33.50;;;6.40;99.90;;;;;;5025234;28;37751;-78
2020/12/12 01:34:06;;;;;;;81.37;41.10;;;6.40;99.90;;;;;;5023121;28;37640;-78
2020/12/12 01:36:32;;;;;;;42.83;31.00;;;6.40;99.90;;;;;;5022347;28;37435;-78
2020/12/12 01:38:58;;;;;;;51.63;34.23;;;6.40;99.90;;;;;;5029840;28;38085;-78
2020/12/12 01:41:24;;;;;;;76.13;41.63;;;6.40;99.90;;;;;;5021267;28;36269;-78
2020/12/12 01:43:52;;;;;;;72.63;40.07;;;6.40;99.90;;;;;;5015494;28;38433;-78
2020/12/12 01:46:25;;;;;;;51.63;34.90;;;6.40;99.90;;;;;;5005965;28;38099;-78
2020/12/12 01:48:56;;;;;;;77.73;42.40;;;6.40;99.90;;;;;;5031984;28;36994;-78
2020/12/12 01:51:26;;;;;;;92.93;43.13;;;6.50;99.90;;;;;;5005221;28;36730;-78
2020/12/12 01:53:54;;;;;;;101.27;46.87;;;6.50;99.90;;;;;;5003917;28;38947;-78
2020/12/12 01:56:21;;;;;;;57.87;33.37;;;6.50;99.90;;;;;;5012682;28;37407;-79
2020/12/12 01:58:47;;;;;;;62.53;36.20;;;6.50;99.90;;;;;;5036927;28;36930;-78
2020/12/12 02:01:13;;;;;;;58.27;37.27;;;6.50;99.90;;;;;;5022406;28;37483;-77
2020/12/12 02:03:43;;;;;;;61.27;38.27;;;6.60;99.90;;;;;;5025413;28;37658;-78
2020/12/12 02:06:13;;;;;;;54.57;36.30;;;6.50;99.90;;;;;;5033508;28;37456;-79
2020/12/12 02:08:39;;;;;;;56.63;36.13;;;6.50;99.90;;;;;;5035733;28;36906;-79
2020/12/12 02:11:11;;;;;;;57.73;35.03;;;6.50;99.90;;;;;;5028403;28;39453;-78
2020/12/12 02:13:38;;;;;;;66.10;37.87;;;6.50;99.90;;;;;;5026060;28;38095;-78
2020/12/12 02:16:04;;;;;;;115.40;47.87;;;6.50;99.90;;;;;;5036338;28;38687;-79
2020/12/12 02:18:30;;;;;;;83.30;44.60;;;6.60;99.90;;;;;;5027241;28;37449;-78
2020/12/12 02:20:59;;;;;;;73.17;38.13;;;6.60;99.90;;;;;;5006718;28;36602;-79
2020/12/12 02:23:26;;;;;;;73.10;40.53;;;6.60;99.90;;;;;;5037307;28;35989;-78
2020/12/12 02:25:52;;;;;;;54.27;35.20;;;6.60;99.90;;;;;;5015826;28;38416;-79
2020/12/12 02:28:25;;;;;;;51.73;33.47;;;6.60;99.90;;;;;;5015026;28;36880;-79
2020/12/12 02:30:51;;;;;;;51.53;34.10;;;6.60;99.90;;;;;;5001004;28;37070;-78
2020/12/12 02:33:17;;;;;;;66.70;38.67;;;6.60;99.90;;;;;;5022165;28;38649;-79
2020/12/12 02:35:43;;;;;;;69.83;35.97;;;6.60;99.90;;;;;;5009382;28;37648;-78
2020/12/12 02:38:10;;;;;;;73.77;41.30;;;6.60;99.90;;;;;;5053905;28;37706;-78
2020/12/12 02:40:36;;;;;;;49.00;31.63;;;6.60;99.90;;;;;;5014168;28;37948;-78
2020/12/12 02:43:02;;;;;;;55.30;35.53;;;6.70;99.90;;;;;;5040853;28;38419;-78
2020/12/12 02:45:29;;;;;;;67.50;38.63;;;6.70;99.90;;;;;;5017654;28;37412;-78
2020/12/12 02:47:55;;;;;;;83.90;44.83;;;6.70;99.90;;;;;;5023123;28;37301;-78
2020/12/12 02:50:28;;;;;;;87.33;43.23;;;6.70;99.90;;;;;;5011252;28;37881;-78
2020/12/12 02:52:54;;;;;;;53.00;34.05;;;6.70;99.90;;;;;;5016152;28;39123;-78
2020/12/12 02:55:21;;;;;;;63.23;36.80;;;6.70;99.90;;;;;;5020986;28;37246;-78
2020/12/12 02:57:47;;;;;;;61.07;33.90;;;6.70;99.90;;;;;;5047904;28;37904;-77
2020/12/12 03:00:18;;;;;;;106.83;48.17;;;6.80;99.90;;;;;;5026541;28;37118;-78
2020/12/12 03:02:45;;;;;;;108.50;48.70;;;6.80;99.90;;;;;;5016504;28;38633;-78
2020/12/12 03:05:11;;;;;;;83.50;42.27;;;6.80;99.90;;;;;;5029773;28;38305;-78
2020/12/12 03:07:37;;;;;;;80.50;43.57;;;6.80;99.90;;;;;;5015022;28;38145;-77
2020/12/12 03:10:06;;;;;;;78.63;41.23;;;6.80;99.90;;;;;;5015783;28;37939;-78
2020/12/12 03:12:37;;;;;;;117.70;45.37;;;6.80;99.90;;;;;;5019886;28;37734;-77
2020/12/12 03:15:08;;;;;;;103.90;46.37;;;6.80;99.90;;;;;;5051982;28;37279;-78
2020/12/12 03:17:34;;;;;;;86.07;44.90;;;6.90;99.90;;;;;;5034191;28;37138;-78
2020/12/12 03:20:01;;;;;;;90.77;43.43;;;6.90;99.90;;;;;;5034517;28;36568;-78
2020/12/12 03:22:27;;;;;;;85.37;42.67;;;6.90;99.90;;;;;;5030365;28;40582;-77
2020/12/12 03:24:53;;;;;;;154.03;52.57;;;6.90;99.90;;;;;;5019827;28;37717;-77
2020/12/12 03:27:19;;;;;;;62.40;38.73;;;6.90;99.90;;;;;;5018642;28;38384;-78
2020/12/12 03:29:45;;;;;;;82.10;42.53;;;6.90;99.90;;;;;;5017633;28;36448;-76
2020/12/12 03:32:11;;;;;;;76.40;42.17;;;6.90;99.90;;;;;;5017922;28;37876;-78
2020/12/12 03:34:39;;;;;;;56.90;35.97;;;6.90;99.90;;;;;;5034653;28;38280;-78
2020/12/12 03:37:06;;;;;;;92.97;43.80;;;6.90;99.90;;;;;;5026444;28;38352;-78
2020/12/12 03:39:32;;;;;;;124.40;46.73;;;6.90;99.90;;;;;;5020183;28;36778;-78
2020/12/12 03:41:58;;;;;;;115.27;45.87;;;6.90;99.90;;;;;;5040068;28;37548;-78
2020/12/12 03:44:25;;;;;;;109.47;46.20;;;6.90;99.90;;;;;;5040022;28;38722;-78
2020/12/12 03:46:51;;;;;;;153.60;51.17;;;6.90;99.90;;;;;;5035587;28;35206;-77
2020/12/12 03:49:17;;;;;;;69.90;38.97;;;6.90;99.90;;;;;;5035998;28;36000;-78
2020/12/12 03:51:43;;;;;;;198.90;57.33;;;6.90;99.90;;;;;;5025905;28;37225;-78
2020/12/12 03:54:09;;;;;;;112.23;46.83;;;7.00;99.90;;;;;;5025510;28;38140;-77
2020/12/12 03:56:36;;;;;;;69.17;39.73;;;7.00;99.90;;;;;;5030448;28;38123;-78
2020/12/12 03:59:02;;;;;;;86.17;40.03;;;6.90;99.90;;;;;;5038307;28;37323;-78
2020/12/12 04:01:28;;;;;;;70.63;37.67;;;7.00;99.90;;;;;;5048435;28;45538;-78
2020/12/12 04:03:54;;;;;;;106.50;47.07;;;7.00;99.90;;;;;;5033481;28;38407;-78
2020/12/12 04:06:21;;;;;;;106.23;44.33;;;7.00;99.90;;;;;;5017792;28;39174;-78
2020/12/12 04:08:48;;;;;;;111.43;42.93;;;7.00;99.90;;;;;;5033388;28;37362;-78
2020/12/12 04:11:15;;;;;;;91.03;42.97;;;7.00;99.90;;;;;;5017530;28;38043;-78
2020/12/12 04:13:41;;;;;;;85.77;37.30;;;7.00;99.90;;;;;;5021358;28;37374;-78
2020/12/12 04:16:08;;;;;;;68.10;39.27;;;7.00;99.90;;;;;;5024451;28;38955;-78
2020/12/12 04:18:34;;;;;;;52.90;33.97;;;7.00;99.90;;;;;;5019978;28;37472;-78
2020/12/12 04:21:00;;;;;;;51.90;33.20;;;7.00;99.90;;;;;;5025031;28;38501;-78
2020/12/12 04:23:26;;;;;;;123.07;49.13;;;7.00;99.90;;;;;;5021548;28;38668;-78
2020/12/12 04:25:52;;;;;;;56.43;34.73;;;7.00;99.90;;;;;;5036600;28;37099;-78
2020/12/12 04:28:18;;;;;;;97.53;43.93;;;7.00;99.90;;;;;;5023075;28;37109;-77
2020/12/12 04:30:44;;;;;;;87.03;39.97;;;7.00;99.90;;;;;;5022109;28;38538;-78
2020/12/12 04:33:10;;;;;;;110.87;45.40;;;7.00;99.90;;;;;;5025087;28;37194;-78
2020/12/12 04:35:37;;;;;;;77.63;42.73;;;7.00;99.90;;;;;;5023049;28;38174;-78
2020/12/12 04:38:03;;;;;;;129.47;48.57;;;7.00;99.90;;;;;;5024572;28;37501;-78
2020/12/12 04:40:29;;;;;;;90.90;46.27;;;7.10;99.90;;;;;;5019795;28;38757;-78
2020/12/12 04:42:56;;;;;;;152.53;48.17;;;7.20;99.90;;;;;;5019028;28;38397;-78
2020/12/12 04:45:23;;;;;;;90.53;44.50;;;7.20;99.90;;;;;;5036914;28;37284;-78
2020/12/12 04:47:50;;;;;;;73.37;41.23;;;7.30;99.90;;;;;;5040876;28;36215;-78
2020/12/12 04:50:17;;;;;;;84.83;40.47;;;7.30;99.90;;;;;;5016551;28;38872;-78
2020/12/12 04:52:44;;;;;;;150.97;50.70;;;7.30;99.90;;;;;;5040149;28;38381;-78
2020/12/12 04:55:10;;;;;;;277.23;60.83;;;7.30;99.90;;;;;;5026560;28;39092;-78
2020/12/12 04:57:38;;;;;;;117.63;48.03;;;7.30;99.90;;;;;;5028112;28;36122;-78
2020/12/12 05:00:08;;;;;;;172.30;51.80;;;7.40;99.90;;;;;;5022801;28;40321;-77
2020/12/12 05:02:35;;;;;;;145.83;51.40;;;7.40;99.90;;;;;;5016558;28;38633;-77
2020/12/12 05:05:01;;;;;;;171.37;51.73;;;7.40;99.90;;;;;;5037695;28;37176;-78
2020/12/12 05:07:27;;;;;;;160.80;48.87;;;7.40;99.90;;;;;;5019066;28;37904;-77
2020/12/12 05:09:53;;;;;;;148.67;50.70;;;7.40;99.90;;;;;;5017073;28;38698;-78
2020/12/12 05:12:21;;;;;;;111.33;43.53;;;7.40;99.90;;;;;;5048536;28;37066;-78
2020/12/12 05:14:51;;;;;;;134.60;49.63;;;7.40;99.90;;;;;;5015001;28;37261;-78
2020/12/12 05:17:20;;;;;;;108.83;44.60;;;7.40;99.90;;;;;;5019676;28;37096;-78
2020/12/12 05:19:49;;;;;;;162.77;51.80;;;7.50;99.90;;;;;;5033692;28;37871;-78
2020/12/12 05:22:17;;;;;;;62.57;36.77;;;7.50;99.90;;;;;;5036550;28;37039;-78
2020/12/12 05:24:44;;;;;;;67.60;35.00;;;7.40;99.90;;;;;;5017344;28;38380;-78
2020/12/12 05:27:10;;;;;;;100.17;39.97;;;7.40;99.90;;;;;;5018072;28;38074;-78
2020/12/12 05:29:36;;;;;;;77.17;40.63;;;7.40;99.90;;;;;;5019638;28;37794;-77
2020/12/12 05:32:03;;;;;;;162.53;49.07;;;7.40;99.90;;;;;;5017529;28;37491;-77
2020/12/12 05:34:30;;;;;;;191.33;51.60;;;7.40;99.90;;;;;;5018738;28;37079;-78
2020/12/12 05:36:56;;;;;;;125.33;44.80;;;7.50;99.90;;;;;;5022785;28;38000;-78
2020/12/12 05:39:23;;;;;;;190.27;52.40;;;7.50;99.90;;;;;;5025403;28;38428;-78
2020/12/12 05:41:50;;;;;;;123.30;45.83;;;7.50;99.90;;;;;;5025698;28;37521;-78
2020/12/12 05:44:18;;;;;;;67.40;37.97;;;7.60;99.90;;;;;;5028020;28;38230;-78
2020/12/12 05:46:45;;;;;;;80.33;40.50;;;7.60;99.90;;;;;;5039489;28;37661;-78
2020/12/12 05:49:12;;;;;;;209.17;54.70;;;7.60;99.90;;;;;;5022380;28;39851;-77
2020/12/12 05:51:39;;;;;;;146.77;47.93;;;7.60;99.90;;;;;;5031480;28;38656;-77
2020/12/12 05:54:05;;;;;;;125.37;44.13;;;7.70;99.90;;;;;;5053295;28;37397;-78
2020/12/12 05:56:31;;;;;;;273.80;59.10;;;7.70;99.90;;;;;;5025850;28;38555;-78
2020/12/12 05:58:59;;;;;;;112.03;46.13;;;7.80;99.90;;;;;;5027330;28;39485;-78
2020/12/12 06:01:28;;;;;;;312.13;67.23;;;7.80;99.90;;;;;;5031745;28;38064;-78
2020/12/12 06:04:11;;;;;;;214.87;55.40;;;7.80;99.90;;;;;;5021204;28;37817;-78
2020/12/12 06:06:45;;;;;;;140.77;48.53;;;7.90;99.90;;;;;;5042601;28;47125;-78
2020/12/12 06:09:14;;;;;;;297.40;61.97;;;7.90;99.90;;;;;;5022456;28;36105;-78
2020/12/12 06:11:45;;;;;;;170.27;49.43;;;7.90;99.90;;;;;;5040936;28;38922;-78
2020/12/12 06:14:12;;;;;;;136.80;44.27;;;7.90;99.90;;;;;;5019638;28;39238;-78
2020/12/12 06:16:39;;;;;;;399.10;66.83;;;7.90;99.90;;;;;;5050297;28;36242;-78
2020/12/12 06:19:22;;;;;;;85.20;43.27;;;7.90;99.90;;;;;;5029214;28;37580;-78
2020/12/12 06:21:49;;;;;;;208.17;53.17;;;7.90;99.90;;;;;;5030417;28;40027;-78
2020/12/12 06:24:17;;;;;;;253.60;56.37;;;7.90;99.90;;;;;;5021441;28;37880;-78
2020/12/12 06:27:00;;;;;;;79.13;41.83;;;7.90;99.90;;;;;;5050826;28;37436;-78
2020/12/12 06:29:30;;;;;;;186.43;50.70;;;7.90;99.90;;;;;;5021965;28;39621;-78
2020/12/12 06:31:58;;;;;;;146.27;49.53;;;7.90;99.90;;;;;;5016651;28;36777;-77
2020/12/12 06:34:40;;;;;;;259.17;58.37;;;8.00;99.90;;;;;;5045146;28;37067;-76
2020/12/12 06:37:06;;;;;;;211.77;54.15;;;8.00;99.90;;;;;;5021607;28;36543;-78
2020/12/12 06:39:44;;;;;;;225.53;53.80;;;8.00;99.90;;;;;;5020961;28;37915;-78
2020/12/12 06:42:29;;;;;;;383.53;60.87;;;8.00;99.90;;;;;;5014560;28;38493;-78
2020/12/12 06:44:55;;;;;;;128.73;47.90;;;8.00;99.90;;;;;;5018743;28;38134;-78
2020/12/12 06:47:39;;;;;;;183.73;51.73;;;8.00;99.90;;;;;;5019229;28;38566;-78
2020/12/12 06:50:07;;;;;;;281.93;61.77;;;8.00;99.90;;;;;;5037634;28;39164;-78
2020/12/12 06:52:33;;;;;;;94.63;45.87;;;8.00;99.90;;;;;;5022361;28;37715;-78
2020/12/12 06:55:06;;;;;;;143.03;50.73;;;8.00;99.90;;;;;;5024096;28;38138;-78
2020/12/12 06:57:38;;;;;;;218.80;51.22;;;8.00;99.90;;;;;;5035758;28;47606;-78
2020/12/12 07:00:17;;;;;;;74.78;41.78;;;8.00;99.90;;;;;;5022093;28;37346;-78
2020/12/12 07:03:05;;;;;;;179.73;55.57;;;8.00;99.90;;;;;;5015973;28;46977;-77
2020/12/12 07:05:36;;;;;;;143.50;47.97;;;8.10;99.90;;;;;;4998756;28;47424;-78
2020/12/12 07:08:07;;;;;;;77.83;40.00;;;8.10;99.90;;;;;;4997394;28;36929;-78
2020/12/12 07:10:35;;;;;;;190.93;53.97;;;8.10;99.90;;;;;;5002434;28;38816;-78
2020/12/12 07:13:02;;;;;;;228.47;55.70;;;8.00;99.90;;;;;;4994936;28;38779;-78
2020/12/12 07:15:29;;;;;;;85.10;43.07;;;8.00;99.90;;;;;;5019376;28;36950;-78
2020/12/12 07:18:00;;;;;;;96.07;42.63;;;8.00;99.90;;;;;;4999985;28;37245;-78
2020/12/12 07:20:35;;;;;;;110.33;43.37;;;8.00;99.90;;;;;;5005351;28;38285;-77
2020/12/12 07:23:03;;;;;;;95.33;42.70;;;8.00;99.90;;;;;;5019633;28;38610;-78
2020/12/12 07:25:29;;;;;;;194.90;51.83;;;8.00;99.90;;;;;;4999240;28;38566;-78
2020/12/12 07:27:56;;;;;;;88.07;43.13;;;8.00;99.90;;;;;;4999299;28;37202;-78
2020/12/12 07:30:22;;;;;;;79.60;41.53;;;8.00;99.90;;;;;;5013231;28;38686;-78
2020/12/12 07:32:49;;;;;;;199.80;56.47;;;8.00;99.90;;;;;;5014776;28;37644;-78
2020/12/12 07:35:15;;;;;;;373.17;64.23;;;8.00;99.90;;;;;;5002732;28;38948;-78
2020/12/12 07:37:41;;;;;;;172.40;52.03;;;8.00;99.90;;;;;;5008039;28;37630;-78
2020/12/12 07:40:07;;;;;;;164.80;50.93;;;8.00;99.90;;;;;;5000495;28;37768;-78
2020/12/12 07:42:35;;;;;;;330.43;64.73;;;8.00;99.90;;;;;;5005969;28;38189;-78
2020/12/12 07:48:03;;;;;;;230.77;57.03;;;8.10;99.90;;;;;;5001449;28;49015;-78
2020/12/12 07:50:29;;;;;;;194.73;50.77;;;8.10;99.90;;;;;;5000282;28;45557;-78
2020/12/12 07:52:56;;;;;;;166.27;56.27;;;8.10;99.90;;;;;;5021108;28;37557;-78
2020/12/12 07:55:24;;;;;;;150.27;52.20;;;8.10;99.90;;;;;;5003668;28;37514;-78
2020/12/12 07:57:55;;;;;;;103.83;44.10;;;8.20;99.90;;;;;;5004876;28;37076;-78
2020/12/12 08:00:21;;;;;;;174.27;53.77;;;8.20;99.90;;;;;;5005615;28;38455;-78
2020/12/12 08:02:58;;;;;;;264.80;62.77;;;8.20;99.90;;;;;;5001519;28;37301;-78
2020/12/12 08:05:24;;;;;;;177.60;49.40;;;8.20;99.90;;;;;;5000714;28;38701;-78
2020/12/12 08:07:51;;;;;;;75.57;40.70;;;8.10;99.90;;;;;;5004920;28;36726;-78
2020/12/12 08:10:17;;;;;;;114.80;41.67;;;8.10;99.90;;;;;;5003081;28;38523;-78
2020/12/12 08:12:44;;;;;;;95.10;41.10;;;8.00;99.90;;;;;;5004632;28;38438;-78
2020/12/12 08:18:14;;;;;;;85.73;40.17;;;8.00;99.90;;;;;;5006794;28;37243;-78
2020/12/12 08:20:43;;;;;;;158.87;48.23;;;8.00;99.90;;;;;;5004518;28;40044;-79
2020/12/12 08:23:14;;;;;;;177.23;48.67;;;8.00;99.90;;;;;;5005047;28;38841;-78
2020/12/12 08:25:41;;;;;;;151.53;45.43;;;8.00;99.90;;;;;;5005964;28;37376;-78
2020/12/12 08:28:08;;;;;;;92.43;41.10;;;8.00;99.90;;;;;;5015088;28;36927;-79
2020/12/12 08:30:34;;;;;;;95.77;43.00;;;8.00;99.90;;;;;;5001644;28;38953;-78
2020/12/12 08:33:12;;;;;;;96.57;39.23;;;8.00;99.90;;;;;;5004398;28;39556;-79
2020/12/12 08:35:39;;;;;;;135.17;45.53;;;8.10;99.90;;;;;;5015265;28;47420;-79
2020/12/12 08:38:10;;;;;;;99.87;39.67;;;8.10;99.90;;;;;;5004164;28;36866;-77
2020/12/12 08:40:44;;;;;;;101.00;39.53;;;8.10;99.90;;;;;;5011676;28;38396;-78
2020/12/12 08:43:11;;;;;;;90.73;37.90;;;8.10;99.90;;;;;;5020904;28;37449;-78
2020/12/12 08:45:40;;;;;;;92.70;39.33;;;8.00;99.90;;;;;;5001777;28;37159;-78
2020/12/12 08:48:11;;;;;;;117.93;40.63;;;8.00;99.90;;;;;;5011959;28;37237;-78
2020/12/12 08:50:57;;;;;;;92.27;36.87;;;8.00;99.90;;;;;;5014564;28;39842;-77
2020/12/12 08:53:32;;;;;;;96.00;39.00;;;8.10;99.90;;;;;;4999820;28;38419;-76
2020/12/12 08:56:16;;;;;;;86.40;37.03;;;8.10;99.90;;;;;;5002220;28;37009;-78
2020/12/12 08:58:48;;;;;;;160.73;44.63;;;8.10;99.90;;;;;;5007409;28;47361;-77
2020/12/12 09:01:32;;;;;;;188.93;47.50;;;8.20;99.90;;;;;;5028956;28;37495;-76
2020/12/12 09:04:14;;;;;;;98.47;38.50;;;8.20;99.90;;;;;;5038816;28;38112;-78
2020/12/12 09:06:45;;;;;;;72.17;35.37;;;8.30;99.90;;;;;;5023360;28;48890;-77
2020/12/12 09:09:19;;;;;;;81.90;35.23;;;8.30;99.90;;;;;;5039724;28;36096;-76
2020/12/12 09:11:53;;;;;;;66.27;33.43;;;8.30;99.90;;;;;;5023466;28;38558;-76
2020/12/12 09:14:20;;;;;;;76.13;34.73;;;8.30;99.90;;;;;;5021627;28;38832;-77
2020/12/12 09:16:47;;;;;;;122.50;40.37;;;8.30;99.90;;;;;;5045146;28;37281;-77
2020/12/12 09:19:13;;;;;;;70.70;34.50;;;8.30;99.90;;;;;;5045835;28;36495;-77
2020/12/12 09:21:40;;;;;;;76.20;33.17;;;8.40;99.90;;;;;;5031269;28;39340;-77
2020/12/12 09:24:06;;;;;;;71.73;32.80;;;8.40;99.90;;;;;;5035162;28;37941;-77
2020/12/12 09:26:32;;;;;;;60.87;30.13;;;8.30;99.90;;;;;;5023695;28;37166;-78
2020/12/12 09:28:58;;;;;;;65.63;32.33;;;8.30;99.90;;;;;;5029503;28;37293;-77
2020/12/12 09:31:25;;;;;;;68.03;32.20;;;8.40;99.90;;;;;;5021304;28;38939;-76
2020/12/12 09:33:51;;;;;;;61.37;30.97;;;8.40;99.90;;;;;;5028052;28;37350;-76
2020/12/12 09:36:19;;;;;;;64.07;31.57;;;8.40;99.90;;;;;;5030930;28;37655;-77
2020/12/12 09:38:45;;;;;;;78.30;33.27;;;8.50;99.90;;;;;;5010948;28;38550;-77
2020/12/12 09:41:11;;;;;;;65.10;31.20;;;8.50;99.90;;;;;;5026979;28;37533;-76
2020/12/12 09:43:38;;;;;;;70.30;32.37;;;8.60;99.90;;;;;;5034569;28;38271;-78
2020/12/12 09:46:06;;;;;;;61.97;31.13;;;8.60;99.90;;;;;;5032152;28;37909;-79
2020/12/12 09:48:32;;;;;;;74.53;33.70;;;8.60;99.90;;;;;;5031086;28;37426;-78
2020/12/12 09:50:58;;;;;;;83.27;32.97;;;8.60;99.90;;;;;;5027800;28;39090;-78
2020/12/12 09:53:24;;;;;;;136.67;41.37;;;8.70;99.90;;;;;;5046094;28;37321;-78
2020/12/12 09:55:53;;;;;;;121.07;38.93;;;8.80;99.90;;;;;;5028730;28;37170;-77
2020/12/12 09:58:19;;;;;;;128.27;36.73;;;9.00;99.90;;;;;;5026574;28;36246;-75
2020/12/12 10:00:47;;;;;;;71.30;33.90;;;9.00;99.90;;;;;;5012764;28;37502;-76
2020/12/12 10:03:13;;;;;;;86.37;36.77;;;8.90;99.90;;;;;;5008693;28;37257;-75
2020/12/12 10:05:39;;;;;;;135.30;40.50;;;8.90;99.90;;;;;;5020090;28;36737;-76
2020/12/12 10:08:06;;;;;;;82.97;35.27;;;9.00;99.90;;;;;;5028241;28;36391;-76
2020/12/12 10:10:32;;;;;;;60.13;30.90;;;9.10;99.90;;;;;;5023687;28;38715;-76
2020/12/12 10:12:59;;;;;;;68.90;32.30;;;9.20;99.90;;;;;;5030245;28;39428;-77
2020/12/12 10:15:25;;;;;;;63.70;32.40;;;9.20;99.90;;;;;;5047684;28;37824;-76
2020/12/12 10:17:51;;;;;;;66.67;31.67;;;9.20;99.90;;;;;;5034111;28;36216;-76
2020/12/12 10:20:18;;;;;;;57.47;30.57;;;9.20;99.90;;;;;;5006942;28;38569;-76
2020/12/12 10:22:44;;;;;;;65.03;30.90;;;9.30;99.90;;;;;;5035360;28;37128;-76
2020/12/12 10:25:11;;;;;;;67.00;30.97;;;9.30;99.90;;;;;;5000215;28;38012;-76
2020/12/12 10:27:38;;;;;;;61.10;31.07;;;9.40;99.90;;;;;;5009774;28;37780;-76
2020/12/12 10:30:06;;;;;;;56.27;30.07;;;9.50;99.90;;;;;;5011362;28;39235;-76
2020/12/12 10:32:33;;;;;;;55.67;28.70;;;9.60;99.90;;;;;;5007210;28;37332;-76
2020/12/12 10:34:59;;;;;;;56.27;29.50;;;9.60;99.90;;;;;;5009747;28;37176;-76
2020/12/12 10:37:25;;;;;;;50.97;27.83;;;9.60;99.90;;;;;;5014081;28;37612;-76
2020/12/12 10:42:32;;;;;;;54.83;29.10;;;9.50;99.90;;;;;;5028548;28;48368;-76
2020/12/12 10:44:59;;;;;;;47.57;26.40;;;9.50;99.90;;;;;;5027750;28;38650;-75
2020/12/12 10:47:25;;;;;;;52.77;28.50;;;9.50;99.90;;;;;;5022001;28;38964;-76
2020/12/12 10:49:52;;;;;;;63.93;32.63;;;9.50;99.90;;;;;;5020111;28;37747;-75
2020/12/12 10:52:18;;;;;;;64.93;31.97;;;9.60;99.90;;;;;;5014797;28;37286;-76
2020/12/12 10:54:48;;;;;;;57.00;30.23;;;9.60;99.90;;;;;;5003136;28;39070;-76
2020/12/12 10:57:14;;;;;;;75.63;35.77;;;9.70;99.90;;;;;;5008464;28;37352;-76
2020/12/12 10:59:42;;;;;;;52.53;30.87;;;9.80;99.90;;;;;;5004384;28;39767;-76
2020/12/12 11:02:10;;;;;;;51.93;30.23;;;9.80;99.90;;;;;;5022912;28;38556;-75
2020/12/12 11:04:38;;;;;;;47.57;29.37;;;9.90;99.90;;;;;;5023063;28;37884;-76
2020/12/12 11:07:05;;;;;;;43.40;28.40;;;10.10;99.90;;;;;;5023475;28;36521;-75
2020/12/12 11:09:31;;;;;;;47.93;27.33;;;10.10;99.90;;;;;;5022912;28;37971;-76
2020/12/12 11:11:57;;;;;;;42.53;26.60;;;10.10;99.90;;;;;;5022142;28;39440;-75
2020/12/12 11:14:29;;;;;;;42.40;25.53;;;10.10;99.90;;;;;;5036957;28;37786;-76
2020/12/12 11:16:56;;;;;;;40.63;25.90;;;10.10;99.90;;;;;;5034280;28;36224;-75
2020/12/12 11:19:22;;;;;;;42.33;24.92;;;10.20;99.90;;;;;;5023442;28;40046;-76
2020/12/12 11:21:48;;;;;;;37.45;23.63;;;10.20;99.90;;;;;;5025307;28;38360;-76
2020/12/12 11:24:14;;;;;;;49.30;27.27;;;10.40;99.90;;;;;;5021574;28;38495;-77
2020/12/12 11:26:40;;;;;;;44.10;27.07;;;10.50;99.90;;;;;;5018320;28;37438;-76
2020/12/12 11:29:06;;;;;;;47.07;28.67;;;10.60;99.90;;;;;;5018715;28;39511;-77
2020/12/12 11:31:33;;;;;;;40.30;25.20;;;10.70;99.90;;;;;;5019493;28;38335;-76
2020/12/12 11:34:15;;;;;;;42.08;25.45;;;10.60;99.90;;;;;;5025902;28;37860;-76
2020/12/12 11:39:42;;;;;;;48.83;25.97;;;10.80;99.90;;;;;;5026338;28;39958;-76
2020/12/12 11:47:13;;;;;;;39.33;21.53;;;10.90;99.90;;;;;;5022214;28;38053;-75
2020/12/12 11:49:40;;;;;;;33.93;19.77;;;10.90;99.90;;;;;;5022171;28;38588;-75
2020/12/12 11:52:06;;;;;;;43.97;23.57;;;10.80;99.90;;;;;;5022319;28;38589;-73
2020/12/12 11:54:32;;;;;;;42.63;20.17;;;10.80;99.90;;;;;;5022140;28;38279;-75
2020/12/12 11:56:58;;;;;;;40.38;21.58;;;10.90;99.90;;;;;;5022790;28;37364;-74
2020/12/12 11:59:25;;;;;;;40.80;22.23;;;10.90;99.90;;;;;;5018859;28;38443;-75
2020/12/12 12:01:51;;;;;;;31.10;17.93;;;10.90;99.90;;;;;;5022970;28;38322;-75
2020/12/12 12:04:17;;;;;;;33.83;17.33;;;10.90;99.90;;;;;;5024065;28;37933;-75
2020/12/12 12:06:43;;;;;;;34.60;18.60;;;10.90;99.90;;;;;;5043856;28;37194;-75
2020/12/12 12:09:18;;;;;;;40.70;20.50;;;10.90;99.90;;;;;;5022682;28;39512;-75
2020/12/12 12:11:44;;;;;;;32.43;18.37;;;10.90;99.90;;;;;;5026863;28;39461;-75
2020/12/12 12:14:13;;;;;;;41.93;20.13;;;11.00;99.90;;;;;;5024091;28;38224;-75
2020/12/12 12:16:39;;;;;;;32.63;17.03;;;11.00;99.90;;;;;;5024606;28;37546;-75
2020/12/12 12:19:09;;;;;;;32.63;16.63;;;10.90;99.90;;;;;;5024078;28;42198;-75
2020/12/12 12:21:36;;;;;;;34.27;15.77;;;10.80;99.90;;;;;;5042213;28;39455;-76
2020/12/12 12:24:15;;;;;;;29.67;15.77;;;10.80;99.90;;;;;;5027730;28;37141;-75
2020/12/12 12:26:41;;;;;;;33.30;16.23;;;10.80;99.90;;;;;;5020608;28;37442;-76
2020/12/12 12:29:11;;;;;;;30.30;16.30;;;10.80;99.90;;;;;;5027114;28;38664;-75
2020/12/12 12:31:38;;;;;;;32.10;16.23;;;10.80;99.90;;;;;;5028710;28;38578;-76
2020/12/12 12:34:04;;;;;;;24.90;13.67;;;10.90;99.90;;;;;;5039319;28;38415;-75
2020/12/12 12:36:31;;;;;;;24.97;14.20;;;11.00;99.90;;;;;;5029236;28;37300;-75
2020/12/12 12:38:58;;;;;;;30.30;15.20;;;11.00;99.90;;;;;;5024184;28;38780;-74
2020/12/12 12:41:26;;;;;;;23.53;12.60;;;11.00;99.90;;;;;;5027037;28;38188;-75
2020/12/12 12:43:52;;;;;;;31.83;13.73;;;11.00;99.90;;;;;;5024125;28;37941;-75
2020/12/12 12:46:19;;;;;;;31.53;12.13;;;11.00;99.90;;;;;;5026789;28;39581;-76
2020/12/12 12:48:45;;;;;;;22.05;11.05;;;11.20;99.90;;;;;;5024256;28;39046;-76
2020/12/12 12:51:11;;;;;;;26.40;12.52;;;11.20;99.90;;;;;;5031879;28;38206;-75
2020/12/12 12:53:37;;;;;;;28.42;13.80;;;11.20;99.90;;;;;;5021106;28;37267;-75